Terminal Aerodrome Forecast
Issued by NWS Chicago, IL

Home | Current Version | Previous Version | Graphics & Text | Print | Product List | Glossary On
Versions: 1 2 3 4 5 6 7 8 9 10 11 12 13 14 15 16 17 18 19 20 21 22 23 24 25 26 27 28 29 30 31 32 33 34 35
000
FTUS43 KLOT 251300 AAA
TAFRFD
TAF AMD
KRFD 251402Z 2514/2612 16007KT 5SM BR VCTS SCT009 BKN020CB
     FM251500 21011KT P6SM SCT035
     FM252300 19007KT P6SM VCTS BKN035CB
     FM260200 20007KT P6SM FEW020 BKN060
      TEMPO 2608/2612 3SM BR=

USA.gov is the U.S. government's official web portal to all federal, state and local government web resources and services.